createdAt,value
2019-02-05T00:01:38.244Z,101909.88
2019-02-05T00:04:07.872Z,101908.19
2019-02-05T00:06:37.525Z,101915.95
2019-02-05T00:09:08.667Z,101914.25
2019-02-05T00:11:38.264Z,101918.08
2019-02-05T00:14:07.984Z,101917.60
2019-02-05T00:16:37.622Z,101909.59
2019-02-05T00:19:07.323Z,101904.80
2019-02-05T00:21:37.018Z,101898.12
2019-02-05T00:24:06.748Z,101901.98
2019-02-05T00:26:36.235Z,101899.91
2019-02-05T00:29:05.898Z,101901.13
2019-02-05T00:31:35.832Z,101902.45
2019-02-05T00:34:05.565Z,101904.44
2019-02-05T00:36:35.048Z,101899.14
2019-02-05T00:39:07.403Z,101899.66
2019-02-05T00:41:36.944Z,101909.56
2019-02-05T00:44:06.531Z,101916.30
2019-02-05T00:46:36.064Z,101916.30
2019-02-05T00:49:05.681Z,101919.72
2019-02-05T00:51:35.236Z,101915.45
2019-02-05T00:54:05.015Z,101912.05
2019-02-05T00:56:36.109Z,101914.80
2019-02-05T00:59:06.589Z,101903.73
2019-02-05T01:01:36.178Z,101908.30
2019-02-05T01:04:06.124Z,101911.28
2019-02-05T01:06:35.695Z,101910.14
2019-02-05T01:09:08.764Z,101911.92
2019-02-05T01:11:38.310Z,101908.92
2019-02-05T01:14:07.893Z,101913.33
2019-02-05T01:16:37.516Z,101916.82
2019-02-05T01:19:07.069Z,101915.23
2019-02-05T01:21:36.628Z,101900.28
2019-02-05T01:24:06.570Z,101911.28
2019-02-05T01:26:36.143Z,101913.05
2019-02-05T01:29:06.680Z,101919.25
2019-02-05T01:31:36.153Z,101917.15
2019-02-05T01:34:05.827Z,101914.39
2019-02-05T01:36:35.386Z,101910.80
2019-02-05T01:39:06.974Z,101923.06
2019-02-05T01:41:36.790Z,101920.25
2019-02-05T01:44:07.333Z,101915.06
2019-02-05T01:46:36.825Z,101919.97
2019-02-05T01:49:06.439Z,101916.73
2019-02-05T01:51:35.986Z,101927.06
2019-02-05T01:54:05.824Z,101913.99
2019-02-05T01:56:40.860Z,101919.02
2019-02-05T01:59:06.767Z,101916.57
2019-02-05T02:01:36.318Z,101916.36
2019-02-05T02:04:05.977Z,101920.44
2019-02-05T02:06:35.515Z,101928.15
2019-02-05T02:09:06.576Z,101933.48
2019-02-05T02:11:36.213Z,101934.77
2019-02-05T02:14:05.982Z,101937.55
2019-02-05T02:16:35.549Z,101938.06
2019-02-05T02:19:05.202Z,101937.95
2019-02-05T02:21:34.747Z,101936.46
2019-02-05T02:24:04.780Z,101940.72
2019-02-05T02:26:34.386Z,101939.02
2019-02-05T02:29:04.235Z,101939.31
2019-02-05T02:31:33.930Z,101939.43
2019-02-05T02:34:03.483Z,101933.33
2019-02-05T02:36:33.044Z,101933.20
2019-02-05T02:39:02.814Z,101933.92
2019-02-05T02:41:32.378Z,101934.41
2019-02-05T02:44:01.887Z,101935.69
2019-02-05T02:46:31.429Z,101931.44
2019-02-05T02:49:00.998Z,101935.49
2019-02-05T02:51:30.532Z,101937.77
2019-02-05T02:54:00.098Z,101938.84
2019-02-05T02:56:29.732Z,101945.77
2019-02-05T02:58:59.207Z,101936.47
2019-02-05T03:01:28.754Z,101935.78
2019-02-05T03:03:58.306Z,101943.89
2019-02-05T03:06:27.857Z,101932.94
2019-02-05T03:08:57.805Z,101941.50
2019-02-05T03:11:27.284Z,101947.73
2019-02-05T03:13:56.795Z,101943.79
2019-02-05T03:16:26.465Z,101937.06
2019-02-05T03:18:57.111Z,101941.70
2019-02-05T03:21:26.593Z,101945.06
2019-02-05T03:23:56.079Z,101950.09
2019-02-05T03:26:25.781Z,101949.20
2019-02-05T03:28:55.320Z,101955.93
2019-02-05T03:31:24.806Z,101959.09
2019-02-05T03:33:54.287Z,101959.77
2019-02-05T03:36:23.772Z,101958.09
2019-02-05T03:38:53.335Z,101958.77
2019-02-05T03:41:22.886Z,101961.44
2019-02-05T03:43:52.378Z,101960.65
2019-02-05T03:46:22.065Z,101955.31
2019-02-05T03:48:51.782Z,101956.77
2019-02-05T03:51:28.667Z,101949.90
2019-02-05T03:54:17.483Z,101951.95
2019-02-05T03:57:06.665Z,101950.80
2019-02-05T04:00:00.211Z,101946.92
2019-02-05T04:02:58.598Z,101946.53
2019-02-05T04:05:58.344Z,101952.86
2019-02-05T04:09:05.353Z,101952.36
2019-02-05T04:12:01.578Z,101960.14
2019-02-05T04:14:59.920Z,101960.77
2019-02-05T04:17:51.269Z,101966.30
2019-02-05T04:20:31.361Z,101959.95
2019-02-05T04:23:28.173Z,101963.62
2019-02-05T04:26:18.503Z,101963.31
2019-02-05T04:29:34.940Z,101964.80
2019-02-05T04:32:26.408Z,101959.19
2019-02-05T04:35:14.774Z,101964.11
2019-02-05T04:38:03.805Z,101960.35
2019-02-05T04:40:58.707Z,101955.02
2019-02-05T04:44:05.039Z,101961.96
2019-02-05T04:47:14.179Z,101959.49
2019-02-05T04:49:59.916Z,101956.83
2019-02-05T04:52:48.545Z,101950.58
2019-02-05T04:55:40.730Z,101960.77
2019-02-05T04:58:34.031Z,101960.78
2019-02-05T05:01:30.403Z,101959.38
2019-02-05T05:04:35.891Z,101965.30
2019-02-05T05:07:31.070Z,101959.78
2019-02-05T05:10:00.751Z,101962.83
2019-02-05T05:12:30.594Z,101965.31
2019-02-05T05:15:00.365Z,101966.90
2019-02-05T05:17:30.002Z,101979.82
2019-02-05T05:19:59.477Z,101978.64
2019-02-05T05:22:29.100Z,101978.83
2019-02-05T05:25:00.365Z,101978.92
2019-02-05T05:27:30.165Z,101979.73
2019-02-05T05:30:00.039Z,101983.38
2019-02-05T05:32:29.614Z,101976.56
2019-02-05T05:34:59.173Z,101982.58
2019-02-05T05:37:28.654Z,101983.59
2019-02-05T05:39:58.216Z,101980.14
2019-02-05T05:42:27.976Z,101979.34
2019-02-05T05:44:57.495Z,101982.90
2019-02-05T05:47:27.049Z,101983.38
2019-02-05T05:49:56.521Z,101982.30
2019-02-05T05:52:26.023Z,101980.22
2019-02-05T05:54:55.518Z,101983.50
2019-02-05T05:57:25.261Z,101984.87
2019-02-05T05:59:55.021Z,101989.42
2019-02-05T06:02:24.574Z,101992.36
2019-02-05T06:04:54.097Z,101988.63
2019-02-05T06:07:23.574Z,101979.64
2019-02-05T06:09:53.074Z,101983.89
2019-02-05T06:12:22.555Z,101985.85
2019-02-05T06:14:52.133Z,101987.25
2019-02-05T06:17:21.641Z,101989.30
2019-02-05T06:19:51.177Z,101992.19
2019-02-05T06:22:20.661Z,101997.10
2019-02-05T06:24:50.243Z,102001.47
2019-02-05T06:27:19.795Z,101998.51
2019-02-05T06:29:49.743Z,102006.69
2019-02-05T06:32:19.342Z,101997.70
2019-02-05T06:34:48.904Z,102004.53
2019-02-05T06:37:18.397Z,102009.47
2019-02-05T06:39:47.866Z,102009.34
2019-02-05T06:42:18.406Z,102010.75
2019-02-05T06:44:48.368Z,102012.43
2019-02-05T06:47:17.981Z,102011.32
2019-02-05T06:49:47.555Z,102023.20
2019-02-05T06:52:17.923Z,102024.77
2019-02-05T06:54:47.423Z,102025.25
2019-02-05T06:57:16.910Z,102026.92
2019-02-05T06:59:46.846Z,102025.15
2019-02-05T07:02:16.539Z,102026.36
2019-02-05T07:04:46.096Z,102027.72
2019-02-05T07:07:15.603Z,102030.11
2019-02-05T07:09:45.155Z,102037.62
2019-02-05T07:12:14.629Z,102048.58
2019-02-05T07:14:44.107Z,102050.47
2019-02-05T07:17:13.622Z,102048.98
2019-02-05T07:19:43.105Z,102053.63
2019-02-05T07:22:32.021Z,102057.86
2019-02-05T07:25:02.061Z,102057.06
2019-02-05T07:27:31.910Z,102053.53
2019-02-05T07:30:01.434Z,102058.17
2019-02-05T07:32:30.976Z,102059.73
2019-02-05T07:35:00.486Z,102060.84
2019-02-05T07:37:30.063Z,102062.81
2019-02-05T07:39:59.534Z,102071.01
2019-02-05T07:42:30.151Z,102066.78
2019-02-05T07:44:59.920Z,102071.31
2019-02-05T07:47:29.396Z,102076.36
2019-02-05T07:49:59.825Z,102074.69
2019-02-05T07:52:29.363Z,102074.28
2019-02-05T07:54:58.919Z,102078.33
2019-02-05T07:57:28.426Z,102073.97
2019-02-05T07:59:57.910Z,102081.09
2019-02-05T08:02:27.577Z,102084.55
2019-02-05T08:04:57.161Z,102083.56
2019-02-05T08:07:26.715Z,102089.49
2019-02-05T08:09:56.293Z,102097.00
2019-02-05T08:12:25.783Z,102093.16
2019-02-05T08:14:55.265Z,102096.40
2019-02-05T08:17:24.763Z,102105.10
2019-02-05T08:19:54.664Z,102110.92
2019-02-05T08:22:24.225Z,102108.37
2019-02-05T08:24:53.725Z,102118.64
2019-02-05T08:27:23.238Z,102110.94
2019-02-05T08:29:52.756Z,102111.04
2019-02-05T08:32:22.244Z,102123.50
2019-02-05T08:34:51.888Z,102115.28
2019-02-05T08:37:21.503Z,102119.14
2019-02-05T08:39:51.049Z,102123.59
2019-02-05T08:42:20.578Z,102130.80
2019-02-05T08:44:50.063Z,102128.05
2019-02-05T08:47:19.608Z,102136.14
2019-02-05T08:49:49.098Z,102132.68
2019-02-05T08:52:18.849Z,102130.70
2019-02-05T08:54:48.398Z,102133.89
2019-02-05T08:57:17.920Z,102135.55
2019-02-05T08:59:47.390Z,102132.38
2019-02-05T09:02:16.875Z,102133.94
2019-02-05T09:04:46.414Z,102140.89
2019-02-05T09:07:15.899Z,102142.17
2019-02-05T09:09:45.833Z,102143.83
2019-02-05T09:12:17.971Z,102148.97
2019-02-05T09:14:46.693Z,102154.15
2019-02-05T09:17:16.172Z,102157.09
2019-02-05T09:19:45.661Z,102158.58
2019-02-05T09:22:15.175Z,102149.60
2019-02-05T09:24:45.027Z,102153.44
2019-02-05T09:27:14.510Z,102159.98
2019-02-05T09:29:44.061Z,102158.48
2019-02-05T09:32:13.526Z,102157.72
2019-02-05T09:34:43.035Z,102156.91
2019-02-05T09:37:12.591Z,102160.38
2019-02-05T09:39:42.048Z,102165.40
2019-02-05T09:42:11.916Z,102163.72
2019-02-05T09:44:41.476Z,102165.97
2019-02-05T09:47:10.950Z,102166.89
2019-02-05T09:49:40.450Z,102164.05
2019-02-05T09:52:10.067Z,102160.20
2019-02-05T09:54:39.661Z,102158.16
2019-02-05T09:57:09.520Z,102154.53
2019-02-05T09:59:45.317Z,102158.35
2019-02-05T10:02:10.310Z,102160.88
2019-02-05T10:04:39.795Z,102164.63
2019-02-05T10:07:09.308Z,102162.73
2019-02-05T10:09:38.865Z,102165.97
2019-02-05T10:12:08.687Z,102168.06
2019-02-05T10:14:38.254Z,102173.56
2019-02-05T10:17:07.839Z,102176.91
2019-02-05T10:19:37.326Z,102180.75
2019-02-05T10:22:06.955Z,102176.08
2019-02-05T10:24:36.444Z,102180.28
2019-02-05T10:27:06.286Z,102178.17
2019-02-05T10:29:36.044Z,102184.66
2019-02-05T10:32:05.904Z,102181.89
2019-02-05T10:34:35.393Z,102191.94
2019-02-05T10:37:05.110Z,102193.72
2019-02-05T10:39:34.605Z,102191.48
2019-02-05T10:42:04.156Z,102202.02
2019-02-05T10:44:33.853Z,102194.14
2019-02-05T10:47:03.470Z,102193.69
2019-02-05T10:49:33.096Z,102190.87
2019-02-05T10:52:02.590Z,102197.69
2019-02-05T10:54:32.084Z,102193.73
2019-02-05T10:57:01.609Z,102190.71
2019-02-05T10:59:31.077Z,102192.83
2019-02-05T11:02:00.861Z,102186.17
2019-02-05T11:04:30.363Z,102190.17
2019-02-05T11:06:59.958Z,102182.89
2019-02-05T11:09:29.450Z,102188.12
2019-02-05T11:11:58.944Z,102182.49
2019-02-05T11:14:28.460Z,102180.90
2019-02-05T11:16:58.322Z,102182.66
2019-02-05T11:19:27.875Z,102177.77
2019-02-05T11:21:57.376Z,102177.08
2019-02-05T11:24:26.862Z,102179.00
2019-02-05T11:26:56.372Z,102172.44
2019-02-05T11:29:25.896Z,102169.72
2019-02-05T11:31:55.464Z,102166.95
2019-02-05T11:34:25.294Z,102173.02
2019-02-05T11:36:54.870Z,102175.25
2019-02-05T11:39:24.421Z,102181.65
2019-02-05T11:41:53.998Z,102184.16
2019-02-05T11:44:23.488Z,102171.10
2019-02-05T11:46:53.052Z,102173.58
2019-02-05T11:49:22.997Z,102173.81
2019-02-05T11:51:52.495Z,102166.92
2019-02-05T11:54:22.075Z,102167.81
2019-02-05T11:56:51.638Z,102164.45
2019-02-05T11:59:21.151Z,102161.70
2019-02-05T12:01:50.720Z,102164.12
2019-02-05T12:04:20.227Z,102168.87
2019-02-05T12:06:49.996Z,102165.94
2019-02-05T12:09:21.197Z,102169.41
2019-02-05T12:11:50.768Z,102170.72
2019-02-05T12:14:20.334Z,102167.12
2019-02-05T12:16:49.894Z,102162.64
2019-02-05T12:19:19.445Z,102157.30
2019-02-05T12:21:49.005Z,102163.34
2019-02-05T12:24:18.720Z,102153.60
2019-02-05T12:26:48.257Z,102156.07
2019-02-05T12:29:17.735Z,102154.02
2019-02-05T12:31:47.319Z,102155.55
2019-02-05T12:34:16.874Z,102160.22
2019-02-05T12:36:46.570Z,102158.95
2019-02-05T12:39:18.362Z,102165.70
2019-02-05T12:41:48.032Z,102167.53
2019-02-05T12:44:18.598Z,102164.52
2019-02-05T12:46:48.169Z,102155.28
2019-02-05T12:49:17.680Z,102161.12
2019-02-05T12:51:47.267Z,102155.49
2019-02-05T12:54:17.121Z,102164.64
2019-02-05T12:56:46.687Z,102160.95
2019-02-05T12:59:16.344Z,102167.55
2019-02-05T13:01:45.924Z,102163.81
2019-02-05T13:04:15.421Z,102162.85
2019-02-05T13:06:45.045Z,102155.53
2019-02-05T13:09:14.863Z,102160.48
2019-02-05T13:11:44.394Z,102156.88
2019-02-05T13:14:13.877Z,102156.10
2019-02-05T13:16:43.539Z,102154.63
2019-02-05T13:19:13.038Z,102163.01
2019-02-05T13:21:42.690Z,102150.22
2019-02-05T13:24:12.326Z,102149.27
2019-02-05T13:26:41.821Z,102147.03
2019-02-05T13:29:11.340Z,102144.05
2019-02-05T13:31:40.898Z,102147.84
2019-02-05T13:34:10.558Z,102143.57
2019-02-05T13:36:40.324Z,102140.27
2019-02-05T13:39:12.303Z,102142.61
2019-02-05T13:41:41.870Z,102148.83
2019-02-05T13:44:11.474Z,102147.30
2019-02-05T13:46:41.051Z,102149.45
2019-02-05T13:49:10.704Z,102154.13
2019-02-05T13:51:40.503Z,102152.68
2019-02-05T13:54:10.048Z,102157.20
2019-02-05T13:56:39.545Z,102149.61
2019-02-05T13:59:09.077Z,102141.54
2019-02-05T14:01:38.590Z,102146.63
2019-02-05T14:04:08.249Z,102146.22
2019-02-05T14:06:37.927Z,102151.55
2019-02-05T14:09:11.795Z,102150.90
2019-02-05T14:11:41.374Z,102151.86
2019-02-05T14:14:10.868Z,102155.06
2019-02-05T14:16:40.520Z,102150.53
2019-02-05T14:19:10.173Z,102150.81
2019-02-05T14:21:39.663Z,102147.44
2019-02-05T14:24:09.230Z,102142.67
2019-02-05T14:26:38.783Z,102145.05
2019-02-05T14:29:08.301Z,102148.23
2019-02-05T14:31:37.784Z,102148.11
2019-02-05T14:34:07.336Z,102146.05
2019-02-05T14:36:36.928Z,102144.57
2019-02-05T14:39:09.595Z,102153.88
2019-02-05T14:41:39.214Z,102148.72
2019-02-05T14:44:08.662Z,102145.89
2019-02-05T14:46:38.225Z,102146.66
2019-02-05T14:49:08.130Z,102143.30
2019-02-05T14:51:37.735Z,102143.34
2019-02-05T14:54:26.564Z,102147.22
2019-02-05T14:56:56.137Z,102141.98
2019-02-05T14:59:25.649Z,102146.22
2019-02-05T15:01:55.302Z,102136.55
2019-02-05T15:04:24.940Z,102141.36
2019-02-05T15:06:54.422Z,102137.70
2019-02-05T15:09:23.933Z,102140.17
2019-02-05T15:11:53.465Z,102137.83
2019-02-05T15:14:23.339Z,102135.88
2019-02-05T15:16:52.861Z,102139.25
2019-02-05T15:19:22.386Z,102124.59
2019-02-05T15:21:51.975Z,102124.11
2019-02-05T15:24:21.471Z,102127.84
2019-02-05T15:26:51.040Z,102136.56
2019-02-05T15:29:20.848Z,102140.09
2019-02-05T15:31:54.733Z,102144.92
2019-02-05T15:34:21.807Z,102139.93
2019-02-05T15:36:51.288Z,102134.42
2019-02-05T15:39:20.782Z,102136.70
2019-02-05T15:41:50.432Z,102139.62
2019-02-05T15:44:19.992Z,102140.74
2019-02-05T15:46:49.500Z,102139.28
2019-02-05T15:49:18.994Z,102135.41
2019-02-05T15:51:48.662Z,102133.12
2019-02-05T15:54:18.167Z,102129.91
2019-02-05T15:56:47.737Z,102128.95
2019-02-05T15:59:17.215Z,102134.06
2019-02-05T16:01:46.795Z,102136.88
2019-02-05T16:04:16.411Z,102147.03
2019-02-05T16:06:45.913Z,102140.92
2019-02-05T16:09:15.409Z,102144.11
2019-02-05T16:11:44.898Z,102141.56
2019-02-05T16:14:14.454Z,102140.58
2019-02-05T16:16:44.399Z,102138.87
2019-02-05T16:19:13.876Z,102145.05
2019-02-05T16:21:43.397Z,102146.65
2019-02-05T16:24:12.951Z,102148.41
2019-02-05T16:26:42.471Z,102146.88
2019-02-05T16:29:12.000Z,102145.86
2019-02-05T16:31:41.506Z,102149.13
2019-02-05T16:34:11.078Z,102144.48
2019-02-05T16:36:40.625Z,102145.63
2019-02-05T16:39:10.966Z,102142.35
2019-02-05T16:41:40.572Z,102147.51
2019-02-05T16:44:10.080Z,102142.72
2019-02-05T16:46:39.574Z,102138.12
2019-02-05T16:49:09.752Z,102139.85
2019-02-05T16:51:39.233Z,102143.67
2019-02-05T16:54:08.887Z,102144.41
2019-02-05T16:56:38.773Z,102136.69
2019-02-05T16:59:08.440Z,102131.86
2019-02-05T17:01:38.078Z,102134.53
2019-02-05T17:04:07.577Z,102133.39
2019-02-05T17:06:37.064Z,102138.16
2019-02-05T17:09:11.246Z,102138.13
2019-02-05T17:11:40.747Z,102132.91
2019-02-05T17:14:10.345Z,102134.34
2019-02-05T17:16:39.865Z,102139.96
2019-02-05T17:19:09.415Z,102139.80
2019-02-05T17:21:39.135Z,102146.52
2019-02-05T17:24:08.690Z,102142.58
2019-02-05T17:26:38.275Z,102138.40
2019-02-05T17:29:07.800Z,102141.17
2019-02-05T17:31:37.313Z,102139.20
2019-02-05T17:34:06.919Z,102139.28
2019-02-05T17:36:36.415Z,102143.86
2019-02-05T17:39:10.076Z,102148.59
2019-02-05T17:41:39.722Z,102142.69
2019-02-05T17:44:09.221Z,102146.94
2019-02-05T17:46:38.793Z,102149.39
2019-02-05T17:49:08.630Z,102151.78
2019-02-05T17:51:38.137Z,102144.55
2019-02-05T17:54:08.144Z,102146.64
2019-02-05T17:56:37.645Z,102146.70
2019-02-05T17:59:07.122Z,102136.84
2019-02-05T18:01:36.722Z,102129.63
2019-02-05T18:04:06.357Z,102135.07
2019-02-05T18:06:35.979Z,102139.69
2019-02-05T18:09:08.825Z,102137.23
2019-02-05T18:11:38.340Z,102139.00
2019-02-05T18:14:07.993Z,102131.70
2019-02-05T18:16:37.504Z,102133.07
2019-02-05T18:19:07.065Z,102132.27
2019-02-05T18:21:39.365Z,102136.64
2019-02-05T18:24:09.076Z,102143.17
2019-02-05T18:26:39.445Z,102136.36
2019-02-05T18:29:09.031Z,102141.88
2019-02-05T18:31:38.515Z,102134.78
2019-02-05T18:34:08.163Z,102127.15
2019-02-05T18:36:38.090Z,102129.41
2019-02-05T18:39:09.518Z,102124.45
2019-02-05T18:41:39.151Z,102119.58
2019-02-05T18:44:08.764Z,102122.83
2019-02-05T18:46:38.269Z,102124.66
2019-02-05T18:49:08.219Z,102118.23
2019-02-05T18:51:38.315Z,102116.64
2019-02-05T18:54:07.945Z,102109.80
2019-02-05T18:56:37.432Z,102115.82
2019-02-05T18:59:06.937Z,102111.16
2019-02-05T19:01:36.501Z,102115.27
2019-02-05T19:04:06.356Z,102113.13
2019-02-05T19:06:36.112Z,102109.87
2019-02-05T19:09:10.307Z,102108.34
2019-02-05T19:11:39.881Z,102112.31
2019-02-05T19:14:09.385Z,102105.64
2019-02-05T19:16:39.027Z,102100.36
2019-02-05T19:19:15.222Z,102099.34
2019-02-05T19:21:39.836Z,102097.30
2019-02-05T19:24:11.086Z,102103.84
2019-02-05T19:26:42.292Z,102094.56
2019-02-05T19:29:18.574Z,102106.84
2019-02-05T19:31:43.293Z,102104.11
2019-02-05T19:34:12.961Z,102097.67
2019-02-05T19:36:42.484Z,102106.00
2019-02-05T19:39:12.127Z,102093.52
2019-02-05T19:41:41.651Z,102092.59
2019-02-05T19:44:11.148Z,102091.05
2019-02-05T19:46:48.428Z,102083.69
2019-02-05T19:49:21.793Z,102089.42
2019-02-05T19:51:51.254Z,102083.80
2019-02-05T19:54:21.162Z,102077.08
2019-02-05T19:56:50.663Z,102070.37
2019-02-05T19:59:20.657Z,102070.91
2019-02-05T20:01:50.196Z,102062.55
2019-02-05T20:04:19.806Z,102060.02
2019-02-05T20:06:49.441Z,102055.69
2019-02-05T20:09:19.096Z,102059.91
2019-02-05T20:11:48.587Z,102068.53
2019-02-05T20:14:18.079Z,102074.84
2019-02-05T20:16:47.715Z,102072.51
2019-02-05T20:19:17.366Z,102081.19
2019-02-05T20:21:46.914Z,102082.57
2019-02-05T20:24:16.470Z,102080.70
2019-02-05T20:26:47.672Z,102077.89
2019-02-05T20:29:17.346Z,102081.55
2019-02-05T20:31:47.020Z,102076.33
2019-02-05T20:34:16.606Z,102081.97
2019-02-05T20:36:46.280Z,102086.49
2019-02-05T20:39:15.968Z,102084.70
2019-02-05T20:41:45.537Z,102082.95
2019-02-05T20:44:15.148Z,102087.61
2019-02-05T20:46:44.681Z,102087.27
2019-02-05T20:49:14.325Z,102082.91
2019-02-05T20:51:44.266Z,102084.69
2019-02-05T20:54:13.888Z,102073.34
2019-02-05T20:56:43.399Z,102081.41
2019-02-05T20:59:12.916Z,102078.86
2019-02-05T21:01:42.464Z,102078.00
2019-02-05T21:04:11.968Z,102079.08
2019-02-05T21:06:41.562Z,102083.34
2019-02-05T21:09:17.954Z,102076.20
2019-02-05T21:11:47.684Z,102080.11
2019-02-05T21:14:17.340Z,102080.20
2019-02-05T21:16:46.889Z,102077.97
2019-02-05T21:19:16.536Z,102077.42
2019-02-05T21:21:46.161Z,102078.22
2019-02-05T21:24:15.752Z,102076.75
2019-02-05T21:26:45.264Z,102076.05
2019-02-05T21:29:14.886Z,102079.28
2019-02-05T21:31:44.404Z,102076.77
2019-02-05T21:34:15.979Z,102074.30
2019-02-05T21:36:45.174Z,102073.86
2019-02-05T21:39:14.948Z,102075.45
2019-02-05T21:41:44.471Z,102079.56
2019-02-05T21:44:14.147Z,102076.95
2019-02-05T21:46:43.645Z,102082.91
2019-02-05T21:49:13.329Z,102079.07
2019-02-05T21:51:43.239Z,102083.48
2019-02-05T21:54:13.360Z,102081.49
2019-02-05T21:56:43.008Z,102081.63
2019-02-05T21:59:12.673Z,102084.55
2019-02-05T22:01:42.247Z,102085.28
2019-02-05T22:04:11.902Z,102091.42
2019-02-05T22:06:41.661Z,102091.78
2019-02-05T22:09:13.286Z,102086.36
2019-02-05T22:11:42.861Z,102074.37
2019-02-05T22:14:12.622Z,102070.09
2019-02-05T22:16:42.177Z,102068.90
2019-02-05T22:19:12.072Z,102066.06
2019-02-05T22:21:41.610Z,102069.30
2019-02-05T22:24:11.190Z,102065.23
2019-02-05T22:26:40.666Z,102062.62
2019-02-05T22:29:10.542Z,102055.45
2019-02-05T22:31:40.056Z,102062.84
2019-02-05T22:34:09.942Z,102062.02
2019-02-05T22:36:39.493Z,102064.70
2019-02-05T22:39:09.987Z,102059.88
2019-02-05T22:41:39.548Z,102065.28
2019-02-05T22:44:09.185Z,102064.22
2019-02-05T22:46:38.949Z,102057.72
2019-02-05T22:49:08.505Z,102060.37
2019-02-05T22:51:38.130Z,102055.19
2019-02-05T22:54:07.687Z,102056.22
2019-02-05T22:56:37.358Z,102056.88
2019-02-05T22:59:07.301Z,102054.81
2019-02-05T23:01:42.049Z,102052.51
2019-02-05T23:04:13.149Z,102043.09
2019-02-05T23:07:05.520Z,102045.22
2019-02-05T23:09:51.790Z,102041.19
2019-02-05T23:12:27.179Z,102051.23
2019-02-05T23:15:01.625Z,102050.78
2019-02-05T23:17:31.116Z,102051.13
2019-02-05T23:20:00.663Z,102052.81
2019-02-05T23:22:30.182Z,102053.03
2019-02-05T23:24:59.657Z,102049.85
2019-02-05T23:27:29.209Z,102053.91
2019-02-05T23:29:58.678Z,102059.34
2019-02-05T23:32:28.246Z,102057.27
2019-02-05T23:35:02.438Z,102055.10
2019-02-05T23:37:29.075Z,102067.86
2019-02-05T23:39:58.586Z,102061.76
2019-02-05T23:42:28.166Z,102059.41
2019-02-05T23:44:58.689Z,102060.69
2019-02-05T23:47:28.179Z,102059.04
2019-02-05T23:49:57.752Z,102064.39
2019-02-05T23:52:27.255Z,102055.72
2019-02-05T23:54:56.753Z,102057.78
2019-02-05T23:57:26.272Z,102061.38
2019-02-05T23:59:55.731Z,102064.06
